createdAt,value
2018-02-19T00:00:50.304Z,0
2018-02-19T00:01:59.127Z,0
2018-02-19T00:03:08.230Z,0
2018-02-19T00:04:17.056Z,0
2018-02-19T00:05:25.882Z,0
2018-02-19T00:06:34.707Z,0
2018-02-19T00:07:43.535Z,0
2018-02-19T00:08:52.364Z,0
2018-02-19T00:10:01.192Z,0
2018-02-19T00:11:10.018Z,0
2018-02-19T00:12:19.094Z,0
2018-02-19T00:13:27.922Z,0
2018-02-19T00:14:36.747Z,0
2018-02-19T00:15:45.573Z,0
2018-02-19T00:16:54.399Z,0
2018-02-19T00:18:03.225Z,0
2018-02-19T00:19:12.053Z,0
2018-02-19T00:20:20.882Z,0
2018-02-19T00:21:29.709Z,0
2018-02-19T00:22:38.535Z,0
2018-02-19T00:23:47.364Z,0
2018-02-19T00:24:56.190Z,0
2018-02-19T00:26:05.293Z,0
2018-02-19T00:27:14.131Z,0
2018-02-19T00:28:22.957Z,0
2018-02-19T00:29:31.784Z,0
2018-02-19T00:30:40.609Z,0
2018-02-19T00:31:49.438Z,0
2018-02-19T00:32:58.263Z,0
2018-02-19T00:34:07.094Z,0
2018-02-19T00:35:15.923Z,0
2018-02-19T00:36:24.749Z,0
2018-02-19T00:37:33.577Z,0
2018-02-19T00:38:42.405Z,0
2018-02-19T00:39:51.236Z,0
2018-02-19T00:41:00.062Z,0
2018-02-19T00:42:09.166Z,0
2018-02-19T00:43:17.995Z,0
2018-02-19T00:44:26.823Z,0
2018-02-19T00:45:35.648Z,0
2018-02-19T00:46:44.726Z,0
2018-02-19T00:47:53.553Z,0
2018-02-19T00:49:02.381Z,0
2018-02-19T00:50:11.210Z,0
2018-02-19T00:51:20.039Z,0
2018-02-19T00:52:29.020Z,0
2018-02-19T00:53:37.848Z,0
2018-02-19T00:54:46.676Z,0
2018-02-19T00:55:55.503Z,0
2018-02-19T00:57:04.331Z,0
2018-02-19T00:58:13.432Z,0
2018-02-19T00:59:22.260Z,0
2018-02-19T01:00:31.366Z,0
2018-02-19T01:01:40.196Z,0
2018-02-19T01:02:49.021Z,0
2018-02-19T01:03:57.848Z,0
2018-02-19T01:05:06.673Z,0
2018-02-19T01:06:15.501Z,0
2018-02-19T01:07:24.327Z,0
2018-02-19T01:08:33.150Z,0
2018-02-19T01:09:41.978Z,0
2018-02-19T01:10:50.808Z,0
2018-02-19T01:11:59.633Z,0
2018-02-19T01:13:08.462Z,0
2018-02-19T01:14:17.288Z,0
2018-02-19T01:15:26.117Z,0
2018-02-19T01:16:34.944Z,0
2018-02-19T01:17:43.770Z,0
2018-02-19T01:18:52.597Z,0
2018-02-19T01:20:01.712Z,0
2018-02-19T01:21:10.539Z,0
2018-02-19T01:22:19.367Z,0
2018-02-19T01:23:28.194Z,0
2018-02-19T01:24:37.020Z,0
2018-02-19T01:25:45.849Z,0
2018-02-19T01:26:54.674Z,0
2018-02-19T01:28:03.505Z,0
2018-02-19T01:29:12.333Z,0
2018-02-19T01:30:21.158Z,0
2018-02-19T01:31:29.984Z,0
2018-02-19T01:32:38.811Z,0
2018-02-19T01:33:47.636Z,0
2018-02-19T01:34:56.466Z,0
2018-02-19T01:36:05.294Z,0
2018-02-19T01:37:14.120Z,0
2018-02-19T01:38:22.997Z,0
2018-02-19T01:39:31.823Z,0
2018-02-19T01:40:40.652Z,0
2018-02-19T01:41:49.479Z,0
2018-02-19T01:42:58.307Z,0
2018-02-19T01:44:07.136Z,0
2018-02-19T01:45:15.961Z,0
2018-02-19T01:46:24.790Z,0
2018-02-19T01:47:33.618Z,0
2018-02-19T01:48:42.723Z,0
2018-02-19T01:49:51.826Z,0
2018-02-19T01:51:00.651Z,0
2018-02-19T01:52:09.480Z,0
2018-02-19T01:53:18.307Z,0
2018-02-19T01:54:27.134Z,0
2018-02-19T01:55:35.962Z,0
2018-02-19T01:56:45.062Z,0
2018-02-19T01:57:53.888Z,0
2018-02-19T01:59:02.718Z,0
2018-02-19T02:00:11.540Z,0
2018-02-19T02:01:20.369Z,0
2018-02-19T02:02:29.197Z,0
2018-02-19T02:03:38.021Z,0
2018-02-19T02:04:46.847Z,0
2018-02-19T02:05:55.674Z,0
2018-02-19T02:07:04.778Z,0
2018-02-19T02:08:13.604Z,0
2018-02-19T02:09:22.707Z,0
2018-02-19T02:10:31.538Z,0
2018-02-19T02:11:40.365Z,0
2018-02-19T02:12:49.239Z,0
2018-02-19T02:13:58.066Z,0
2018-02-19T02:15:06.893Z,0
2018-02-19T02:16:15.998Z,0
2018-02-19T02:17:24.828Z,0
2018-02-19T02:18:33.653Z,0
2018-02-19T02:19:42.480Z,0
2018-02-19T02:20:51.308Z,0
2018-02-19T02:22:00.137Z,0
2018-02-19T02:23:09.239Z,0
2018-02-19T02:24:18.064Z,0
2018-02-19T02:25:26.891Z,0
2018-02-19T02:26:35.719Z,0
2018-02-19T02:27:44.543Z,0
2018-02-19T02:28:53.371Z,0
2018-02-19T02:30:02.300Z,0
2018-02-19T02:31:11.125Z,0
2018-02-19T02:32:20.232Z,0
2018-02-19T02:33:29.060Z,0
2018-02-19T02:34:37.885Z,0
2018-02-19T02:35:46.721Z,0
2018-02-19T02:36:55.541Z,0
2018-02-19T02:38:04.645Z,0
2018-02-19T02:39:13.471Z,0
2018-02-19T02:40:22.300Z,0
2018-02-19T02:41:31.123Z,0
2018-02-19T02:42:40.226Z,0
2018-02-19T02:43:49.053Z,0
2018-02-19T02:44:57.882Z,0
2018-02-19T02:46:06.707Z,0
2018-02-19T02:47:15.535Z,0
2018-02-19T02:48:24.361Z,0
2018-02-19T02:49:33.189Z,0
2018-02-19T02:50:42.018Z,0
2018-02-19T02:51:50.844Z,0
2018-02-19T02:52:59.674Z,0
2018-02-19T02:54:08.501Z,0
2018-02-19T02:55:17.327Z,0
2018-02-19T02:56:26.157Z,0
2018-02-19T02:57:34.984Z,0
2018-02-19T02:58:43.813Z,0
2018-02-19T02:59:52.638Z,0
2018-02-19T03:01:01.515Z,0
2018-02-19T03:02:10.341Z,0
2018-02-19T03:03:19.169Z,0
2018-02-19T03:04:27.994Z,0
2018-02-19T03:05:36.824Z,0
2018-02-19T03:06:45.652Z,0
2018-02-19T03:07:54.476Z,0
2018-02-19T03:09:03.312Z,0
2018-02-19T03:10:12.137Z,0
2018-02-19T03:11:20.964Z,0
2018-02-19T03:12:29.788Z,0
2018-02-19T03:13:38.614Z,0
2018-02-19T03:14:47.440Z,0
2018-02-19T03:15:56.267Z,0
2018-02-19T03:17:05.094Z,0
2018-02-19T03:18:14.203Z,0
2018-02-19T03:19:23.029Z,0
2018-02-19T03:20:31.855Z,0
2018-02-19T03:21:40.732Z,0
2018-02-19T03:22:49.562Z,0
2018-02-19T03:23:58.389Z,0
2018-02-19T03:25:07.214Z,0
2018-02-19T03:26:16.052Z,0
2018-02-19T03:27:25.152Z,0
2018-02-19T03:28:33.979Z,0
2018-02-19T03:29:42.805Z,0
2018-02-19T03:30:51.635Z,0
2018-02-19T03:32:00.465Z,0
2018-02-19T03:33:09.292Z,0
2018-02-19T03:34:18.118Z,0
2018-02-19T03:35:26.967Z,0
2018-02-19T03:36:35.779Z,0
2018-02-19T03:37:44.606Z,0
2018-02-19T03:38:53.485Z,0
2018-02-19T03:40:02.312Z,0
2018-02-19T03:41:11.142Z,0
2018-02-19T03:42:19.965Z,0
2018-02-19T03:43:28.831Z,0
2018-02-19T03:44:37.892Z,0
2018-02-19T03:45:46.721Z,0
2018-02-19T03:46:55.548Z,0
2018-02-19T03:48:04.648Z,0
2018-02-19T03:49:13.475Z,0
2018-02-19T03:50:22.302Z,0
2018-02-19T03:51:31.133Z,0
2018-02-19T03:52:39.958Z,0
2018-02-19T03:53:48.783Z,0
2018-02-19T03:54:57.614Z,0
2018-02-19T03:56:06.717Z,0
2018-02-19T03:57:15.552Z,0
2018-02-19T03:58:24.649Z,0
2018-02-19T03:59:33.479Z,0
2018-02-19T04:00:42.304Z,0
2018-02-19T04:01:51.131Z,0
2018-02-19T04:02:59.957Z,0
2018-02-19T04:04:08.786Z,0
2018-02-19T04:05:17.612Z,0
2018-02-19T04:06:26.440Z,0
2018-02-19T04:07:35.268Z,0
2018-02-19T04:08:44.097Z,0
2018-02-19T04:09:52.923Z,0
2018-02-19T04:11:02.026Z,0
2018-02-19T04:12:10.852Z,0
2018-02-19T04:13:19.678Z,0
2018-02-19T04:14:28.507Z,0
2018-02-19T04:15:37.334Z,0
2018-02-19T04:16:46.163Z,0
2018-02-19T04:17:54.989Z,0
2018-02-19T04:19:04.092Z,0
2018-02-19T04:20:12.919Z,0
2018-02-19T04:21:21.747Z,0
2018-02-19T04:22:30.573Z,0
2018-02-19T04:23:39.401Z,0
2018-02-19T04:24:48.227Z,0
2018-02-19T04:25:57.052Z,0
2018-02-19T04:27:05.880Z,0
2018-02-19T04:28:14.712Z,0
2018-02-19T04:29:23.539Z,0
2018-02-19T04:30:32.417Z,0
2018-02-19T04:31:41.244Z,0
2018-02-19T04:32:50.069Z,0
2018-02-19T04:33:58.895Z,0
2018-02-19T04:35:07.722Z,0
2018-02-19T04:36:16.550Z,0
2018-02-19T04:37:25.379Z,0
2018-02-19T04:38:34.210Z,0
2018-02-19T04:39:43.313Z,0
2018-02-19T04:40:52.140Z,0
2018-02-19T04:42:01.243Z,0
2018-02-19T04:43:10.069Z,0
2018-02-19T04:44:19.178Z,0
2018-02-19T04:45:28.282Z,0
2018-02-19T04:46:37.108Z,0
2018-02-19T04:47:45.935Z,0
2018-02-19T04:48:55.040Z,0
2018-02-19T04:50:04.144Z,0
2018-02-19T04:51:12.969Z,0
2018-02-19T04:52:21.794Z,0
2018-02-19T04:53:30.621Z,0
2018-02-19T04:54:39.448Z,0
2018-02-19T04:55:48.279Z,0
2018-02-19T04:56:57.101Z,0
2018-02-19T04:58:05.929Z,0
2018-02-19T04:59:15.040Z,0
2018-02-19T05:00:23.864Z,0
2018-02-19T05:01:32.692Z,0
2018-02-19T05:02:41.518Z,0
2018-02-19T05:03:50.342Z,0
2018-02-19T05:04:59.218Z,0
2018-02-19T05:06:08.047Z,0
2018-02-19T05:07:16.875Z,0
2018-02-19T05:08:25.700Z,0
2018-02-19T05:09:34.526Z,0
2018-02-19T05:10:43.629Z,0
2018-02-19T05:11:52.459Z,0
2018-02-19T05:13:01.836Z,0
2018-02-19T05:14:10.674Z,0
2018-02-19T05:15:19.773Z,0
2018-02-19T05:16:28.599Z,0
2018-02-19T05:17:37.711Z,0
2018-02-19T05:18:46.811Z,0
2018-02-19T05:19:55.637Z,0
2018-02-19T05:21:04.466Z,0
2018-02-19T05:22:13.293Z,0
2018-02-19T05:23:22.122Z,0
2018-02-19T05:24:30.948Z,0
2018-02-19T05:25:39.772Z,0
2018-02-19T05:26:48.601Z,0
2018-02-19T05:27:57.430Z,0
2018-02-19T05:29:06.264Z,0
2018-02-19T05:30:15.086Z,0
2018-02-19T05:31:23.910Z,0
2018-02-19T05:32:32.739Z,0
2018-02-19T05:33:41.570Z,0
2018-02-19T05:34:50.676Z,0
2018-02-19T05:35:59.505Z,0
2018-02-19T05:37:08.334Z,0
2018-02-19T05:38:17.161Z,0
2018-02-19T05:39:25.990Z,0
2018-02-19T05:40:34.827Z,0
2018-02-19T05:41:43.656Z,0
2018-02-19T05:42:52.482Z,0
2018-02-19T05:44:01.309Z,0
2018-02-19T05:45:10.138Z,0
2018-02-19T05:46:18.964Z,0
2018-02-19T05:47:27.795Z,0
2018-02-19T05:48:36.900Z,0
2018-02-19T05:49:45.729Z,0
2018-02-19T05:50:54.707Z,0
2018-02-19T05:52:03.534Z,0
2018-02-19T05:53:12.362Z,0
2018-02-19T05:54:21.190Z,0
2018-02-19T05:55:30.016Z,0
2018-02-19T05:56:38.847Z,0
2018-02-19T05:57:47.673Z,0
2018-02-19T05:58:56.503Z,0
2018-02-19T06:00:05.335Z,0
2018-02-19T06:01:14.161Z,0
2018-02-19T06:02:23.055Z,0
2018-02-19T06:03:31.958Z,0
2018-02-19T06:04:40.794Z,0
2018-02-19T06:05:49.897Z,0
2018-02-19T06:06:58.773Z,0
2018-02-19T06:08:07.602Z,0
2018-02-19T06:09:16.473Z,0
2018-02-19T06:10:25.261Z,0
2018-02-19T06:11:34.094Z,0
2018-02-19T06:12:42.975Z,0
2018-02-19T06:13:51.808Z,0
2018-02-19T06:15:00.635Z,0
2018-02-19T06:16:09.461Z,0
2018-02-19T06:17:18.565Z,0
2018-02-19T06:18:27.394Z,0
2018-02-19T06:19:36.221Z,0
2018-02-19T06:20:45.047Z,0
2018-02-19T06:21:53.873Z,0
2018-02-19T06:23:02.750Z,0
2018-02-19T06:24:11.576Z,0
2018-02-19T06:25:20.409Z,0
2018-02-19T06:26:29.230Z,0
2018-02-19T06:27:38.340Z,0
2018-02-19T06:28:47.167Z,0
2018-02-19T06:29:55.996Z,5
2018-02-19T06:31:04.823Z,5
2018-02-19T06:32:13.931Z,5
2018-02-19T06:33:22.907Z,5
2018-02-19T06:34:31.735Z,5
2018-02-19T06:35:40.563Z,5
2018-02-19T06:36:49.673Z,5
2018-02-19T06:37:58.497Z,10
2018-02-19T06:39:07.473Z,10
2018-02-19T06:40:16.301Z,10
2018-02-19T06:41:25.129Z,10
2018-02-19T06:42:33.956Z,10
2018-02-19T06:43:42.784Z,15
2018-02-19T06:44:51.762Z,15
2018-02-19T06:46:00.589Z,15
2018-02-19T06:47:09.697Z,20
2018-02-19T06:48:18.525Z,20
2018-02-19T06:49:27.354Z,20
2018-02-19T06:50:36.180Z,25
2018-02-19T06:51:45.010Z,25
2018-02-19T06:52:53.840Z,25
2018-02-19T06:54:02.672Z,25
2018-02-19T06:55:11.498Z,25
2018-02-19T06:56:20.326Z,30
2018-02-19T06:57:29.152Z,30
2018-02-19T06:58:37.981Z,30
2018-02-19T06:59:46.806Z,30
2018-02-19T07:00:55.632Z,35
2018-02-19T07:02:04.459Z,35
2018-02-19T07:03:13.286Z,35
2018-02-19T07:04:22.114Z,35
2018-02-19T07:05:30.942Z,40
2018-02-19T07:06:39.771Z,40
2018-02-19T07:07:48.873Z,40
2018-02-19T07:08:57.699Z,40
2018-02-19T07:10:06.530Z,45
2018-02-19T07:11:15.358Z,45
2018-02-19T07:12:24.465Z,45
2018-02-19T07:13:33.844Z,50
2018-02-19T07:14:42.673Z,55
2018-02-19T07:15:51.501Z,55
2018-02-19T07:17:00.330Z,60
2018-02-19T07:18:09.159Z,65
2018-02-19T07:19:17.985Z,65
2018-02-19T07:20:26.812Z,65
2018-02-19T07:21:35.641Z,70
2018-02-19T07:22:44.468Z,70
2018-02-19T07:23:53.581Z,70
2018-02-19T07:25:02.413Z,75
2018-02-19T07:26:11.240Z,75
2018-02-19T07:27:20.069Z,80
2018-02-19T07:28:28.894Z,85
2018-02-19T07:29:37.723Z,85
2018-02-19T07:30:46.552Z,85
2018-02-19T07:31:55.378Z,85
2018-02-19T07:33:04.510Z,90
2018-02-19T07:34:13.341Z,90
2018-02-19T07:35:22.170Z,95
2018-02-19T07:36:30.994Z,100
2018-02-19T07:37:39.825Z,100
2018-02-19T07:38:48.753Z,105
2018-02-19T07:39:57.579Z,110
2018-02-19T07:41:06.409Z,115
2018-02-19T07:42:15.238Z,120
2018-02-19T07:43:24.065Z,125
2018-02-19T07:44:33.044Z,130
2018-02-19T07:45:41.873Z,130
2018-02-19T07:46:50.700Z,130
2018-02-19T07:47:59.530Z,135
2018-02-19T07:49:08.359Z,135
2018-02-19T07:50:17.391Z,140
2018-02-19T07:51:26.166Z,135
2018-02-19T07:52:34.994Z,130
2018-02-19T07:53:43.820Z,130
2018-02-19T07:54:52.649Z,125
2018-02-19T07:56:01.631Z,125
2018-02-19T07:57:10.736Z,125
2018-02-19T07:58:19.563Z,130
2018-02-19T07:59:28.392Z,130
2018-02-19T08:00:37.222Z,135
2018-02-19T08:01:46.250Z,140
2018-02-19T08:02:55.078Z,140
2018-02-19T08:04:03.908Z,145
2018-02-19T08:05:12.736Z,145
2018-02-19T08:06:21.565Z,150
2018-02-19T08:07:30.393Z,155
2018-02-19T08:08:39.224Z,155
2018-02-19T08:09:48.052Z,155
2018-02-19T08:10:56.933Z,155
2018-02-19T08:12:05.763Z,160
2018-02-19T08:13:14.693Z,160
2018-02-19T08:14:23.521Z,160
2018-02-19T08:15:32.351Z,160
2018-02-19T08:16:41.181Z,165
2018-02-19T08:17:50.010Z,170
2018-02-19T08:18:58.987Z,175
2018-02-19T08:20:07.816Z,180
2018-02-19T08:21:16.647Z,185
2018-02-19T08:22:25.473Z,185
2018-02-19T08:23:34.585Z,190
2018-02-19T08:24:43.415Z,190
2018-02-19T08:25:52.242Z,190
2018-02-19T08:27:01.355Z,195
2018-02-19T08:28:10.184Z,195
2018-02-19T08:29:19.013Z,200
2018-02-19T08:30:27.994Z,205
2018-02-19T08:31:36.824Z,200
2018-02-19T08:32:45.651Z,200
2018-02-19T08:33:54.481Z,200
2018-02-19T08:35:03.310Z,205
2018-02-19T08:36:12.189Z,205
2018-02-19T08:37:21.017Z,210
2018-02-19T08:38:29.845Z,215
2018-02-19T08:39:38.952Z,225
2018-02-19T08:40:47.787Z,235
2018-02-19T08:41:56.898Z,240
2018-02-19T08:43:05.725Z,245
2018-02-19T08:44:14.556Z,240
2018-02-19T08:45:23.384Z,230
2018-02-19T08:46:32.213Z,220
2018-02-19T08:47:41.142Z,215
2018-02-19T08:48:50.257Z,210
2018-02-19T08:49:59.364Z,210
2018-02-19T08:51:08.193Z,205
2018-02-19T08:52:17.026Z,205
2018-02-19T08:53:25.907Z,205
2018-02-19T08:54:34.738Z,205
2018-02-19T08:55:43.566Z,210
2018-02-19T08:56:52.396Z,210
2018-02-19T08:58:01.230Z,215
2018-02-19T08:59:10.106Z,220
2018-02-19T09:00:18.938Z,225
2018-02-19T09:01:27.772Z,225
2018-02-19T09:02:36.607Z,230
2018-02-19T09:03:45.437Z,225
2018-02-19T09:04:54.573Z,220
2018-02-19T09:06:03.984Z,215
2018-02-19T09:07:12.811Z,215
2018-02-19T09:08:21.645Z,210
2018-02-19T09:09:30.476Z,210
2018-02-19T09:10:39.307Z,210
2018-02-19T09:11:48.412Z,210
2018-02-19T09:12:57.298Z,210
2018-02-19T09:14:06.404Z,210
2018-02-19T09:15:15.509Z,210
2018-02-19T09:16:24.341Z,210
2018-02-19T09:17:33.169Z,210
2018-02-19T09:18:41.997Z,215
2018-02-19T09:19:51.104Z,215
2018-02-19T09:20:59.935Z,220
2018-02-19T09:22:08.817Z,220
2018-02-19T09:23:17.645Z,225
2018-02-19T09:24:26.476Z,220
2018-02-19T09:25:35.307Z,220
2018-02-19T09:26:44.135Z,215
2018-02-19T09:27:52.965Z,220
2018-02-19T09:29:01.797Z,225
2018-02-19T09:30:10.628Z,235
2018-02-19T09:31:19.458Z,245
2018-02-19T09:32:28.286Z,255
2018-02-19T09:33:37.369Z,265
2018-02-19T09:34:46.198Z,280
2018-02-19T09:35:55.029Z,290
2018-02-19T09:37:04.186Z,300
2018-02-19T09:38:13.401Z,310
2018-02-19T09:39:22.176Z,325
2018-02-19T09:40:31.004Z,325
2018-02-19T09:41:39.838Z,330
2018-02-19T09:42:48.668Z,335
2018-02-19T09:43:57.497Z,340
2018-02-19T09:45:06.627Z,340
2018-02-19T09:46:15.459Z,345
2018-02-19T09:47:24.294Z,345
2018-02-19T09:48:33.125Z,355
2018-02-19T09:49:41.955Z,365
2018-02-19T09:50:50.787Z,375
2018-02-19T09:51:59.619Z,385
2018-02-19T09:53:08.449Z,385
2018-02-19T09:54:17.284Z,385
2018-02-19T09:55:26.114Z,385
2018-02-19T09:56:35.227Z,380
2018-02-19T09:57:44.057Z,375
2018-02-19T09:58:53.166Z,375
2018-02-19T10:00:02.000Z,365
2018-02-19T10:01:10.832Z,355
2018-02-19T10:02:19.711Z,355
2018-02-19T10:03:28.540Z,345
2018-02-19T10:04:37.370Z,340
2018-02-19T10:05:46.223Z,335
2018-02-19T10:06:55.041Z,325
2018-02-19T10:08:04.145Z,315
2018-02-19T10:09:12.979Z,310
2018-02-19T10:10:21.812Z,305
2018-02-19T10:11:30.643Z,300
2018-02-19T10:12:39.479Z,300
2018-02-19T10:13:48.865Z,300
2018-02-19T10:14:57.700Z,305
2018-02-19T10:16:06.809Z,305
2018-02-19T10:17:15.921Z,315
2018-02-19T10:18:24.751Z,315
2018-02-19T10:19:33.634Z,320
2018-02-19T10:20:42.464Z,320
2018-02-19T10:21:51.295Z,315
2018-02-19T10:23:00.128Z,310
2018-02-19T10:24:08.964Z,300
2018-02-19T10:25:17.994Z,285
2018-02-19T10:26:26.828Z,275
2018-02-19T10:27:35.934Z,260
2018-02-19T10:28:44.762Z,260
2018-02-19T10:29:53.593Z,245
2018-02-19T10:31:02.527Z,240
2018-02-19T10:32:11.359Z,235
2018-02-19T10:33:20.240Z,235
2018-02-19T10:34:29.070Z,240
2018-02-19T10:35:37.902Z,250
2018-02-19T10:36:46.780Z,260
2018-02-19T10:37:55.612Z,270
2018-02-19T10:39:04.445Z,270
2018-02-19T10:40:13.282Z,265
2018-02-19T10:41:22.109Z,280
2018-02-19T10:42:31.218Z,285
2018-02-19T10:43:40.049Z,285
2018-02-19T10:44:48.916Z,290
2018-02-19T10:45:57.708Z,290
2018-02-19T10:47:06.820Z,290
2018-02-19T10:48:15.700Z,295
2018-02-19T10:49:24.532Z,300
2018-02-19T10:50:33.359Z,305
2018-02-19T10:51:42.190Z,310
2018-02-19T10:52:51.021Z,310
2018-02-19T10:53:59.861Z,315
2018-02-19T10:55:08.682Z,315
2018-02-19T10:56:17.512Z,320
2018-02-19T10:57:26.343Z,320
2018-02-19T10:58:35.175Z,320
2018-02-19T10:59:44.104Z,320
2018-02-19T11:00:52.935Z,320
2018-02-19T11:02:02.043Z,315
2018-02-19T11:03:10.875Z,315
2018-02-19T11:04:19.708Z,310
2018-02-19T11:05:29.019Z,310
2018-02-19T11:06:37.851Z,310
2018-02-19T11:07:46.681Z,310
2018-02-19T11:08:55.517Z,310
2018-02-19T11:10:04.623Z,310
2018-02-19T11:11:13.455Z,310
2018-02-19T11:12:22.286Z,310
2018-02-19T11:13:31.116Z,310
2018-02-19T11:14:39.949Z,310
2018-02-19T11:15:49.067Z,310
2018-02-19T11:16:58.042Z,315
2018-02-19T11:18:06.874Z,315
2018-02-19T11:19:15.994Z,315
2018-02-19T11:20:24.827Z,320
2018-02-19T11:21:33.662Z,320
2018-02-19T11:22:42.495Z,325
2018-02-19T11:23:51.324Z,325
2018-02-19T11:25:00.207Z,325
2018-02-19T11:26:09.039Z,325
2018-02-19T11:27:17.872Z,325
2018-02-19T11:28:26.751Z,325
2018-02-19T11:29:35.583Z,325
2018-02-19T11:30:44.692Z,325
2018-02-19T11:31:53.523Z,325
2018-02-19T11:33:02.405Z,320
2018-02-19T11:34:11.236Z,320
2018-02-19T11:35:20.069Z,315
2018-02-19T11:36:28.900Z,310
2018-02-19T11:37:37.732Z,300
2018-02-19T11:38:55.316Z,290
2018-02-19T11:39:55.394Z,300
2018-02-19T11:41:04.227Z,320
2018-02-19T11:42:13.058Z,345
2018-02-19T11:43:21.890Z,350
2018-02-19T11:44:30.997Z,350
2018-02-19T11:45:39.829Z,355
2018-02-19T11:46:48.659Z,360
2018-02-19T11:47:57.768Z,365
2018-02-19T11:49:06.600Z,365
2018-02-19T11:50:15.433Z,370
2018-02-19T11:51:24.317Z,375
2018-02-19T11:52:33.889Z,375
2018-02-19T11:53:42.759Z,380
2018-02-19T11:54:52.135Z,380
2018-02-19T11:56:00.980Z,390
2018-02-19T11:57:09.816Z,390
2018-02-19T11:58:19.012Z,385
2018-02-19T11:59:27.878Z,380
2018-02-19T12:00:37.243Z,375
2018-02-19T12:01:46.422Z,375
2018-02-19T12:02:55.748Z,375
2018-02-19T12:04:04.609Z,375
2018-02-19T12:05:13.456Z,375
2018-02-19T12:06:22.555Z,375
2018-02-19T12:07:32.045Z,375
2018-02-19T12:09:10.664Z,380
2018-02-19T12:10:19.528Z,380
2018-02-19T12:11:28.780Z,380
2018-02-19T12:12:37.825Z,380
2018-02-19T12:14:16.467Z,390
2018-02-19T12:15:25.630Z,390
2018-02-19T12:16:34.536Z,390
2018-02-19T12:17:43.624Z,390
2018-02-19T12:18:53.052Z,395
2018-02-19T12:20:01.886Z,400
2018-02-19T12:21:11.084Z,415
2018-02-19T12:22:19.915Z,435
2018-02-19T12:23:29.321Z,445
2018-02-19T12:24:38.268Z,605
2018-02-19T12:25:47.101Z,735
2018-02-19T12:26:55.940Z,680
2018-02-19T12:28:04.983Z,680
2018-02-19T12:29:13.859Z,665
2018-02-19T12:30:23.191Z,650
2018-02-19T12:31:32.324Z,660
2018-02-19T12:32:41.693Z,585
2018-02-19T12:33:51.056Z,640
2018-02-19T12:35:00.206Z,585
2018-02-19T12:36:09.112Z,540
2018-02-19T12:37:18.078Z,505
2018-02-19T12:38:27.166Z,530
2018-02-19T12:39:36.501Z,610
2018-02-19T12:40:45.335Z,690
2018-02-19T12:41:54.221Z,695
2018-02-19T12:43:03.103Z,760
2018-02-19T12:44:12.548Z,710
2018-02-19T12:45:21.850Z,665
2018-02-19T12:46:30.692Z,625
2018-02-19T12:47:40.146Z,725
2018-02-19T12:48:49.227Z,785
2018-02-19T12:49:58.167Z,670
2018-02-19T12:51:07.287Z,730
2018-02-19T12:52:16.122Z,845
2018-02-19T12:53:25.007Z,815
2018-02-19T12:54:33.848Z,805
2018-02-19T12:55:42.680Z,790
2018-02-19T12:56:51.513Z,640
2018-02-19T12:58:00.347Z,645
2018-02-19T12:59:09.188Z,655
2018-02-19T13:00:18.022Z,665
2018-02-19T13:01:26.911Z,685
2018-02-19T13:02:35.747Z,730
2018-02-19T13:03:44.580Z,745
2018-02-19T13:04:53.516Z,770
2018-02-19T13:06:02.349Z,910
2018-02-19T13:07:11.190Z,950
2018-02-19T13:08:20.031Z,820
2018-02-19T13:09:29.152Z,760
2018-02-19T13:10:38.289Z,760
2018-02-19T13:11:47.126Z,785
2018-02-19T13:12:55.961Z,750
2018-02-19T13:14:04.798Z,700
2018-02-19T13:15:13.634Z,680
2018-02-19T13:16:22.475Z,690
2018-02-19T13:17:31.311Z,680
2018-02-19T13:18:40.196Z,700
2018-02-19T13:19:48.986Z,725
2018-02-19T13:20:57.826Z,680
2018-02-19T13:22:06.964Z,680
2018-02-19T13:23:15.802Z,665
2018-02-19T13:24:24.637Z,660
2018-02-19T13:25:33.758Z,690
2018-02-19T13:26:42.874Z,695
2018-02-19T13:27:51.862Z,655
2018-02-19T13:29:00.702Z,640
2018-02-19T13:30:09.540Z,630
2018-02-19T13:31:18.384Z,670
2018-02-19T13:32:27.499Z,675
2018-02-19T13:33:36.335Z,610
2018-02-19T13:34:45.172Z,580
2018-02-19T13:35:54.009Z,555
2018-02-19T13:37:03.122Z,545
2018-02-19T13:38:11.957Z,530
2018-02-19T13:39:20.944Z,530
2018-02-19T13:40:29.783Z,540
2018-02-19T13:41:38.616Z,545
2018-02-19T13:42:47.455Z,540
2018-02-19T13:43:56.293Z,540
2018-02-19T13:45:05.433Z,530
2018-02-19T13:46:14.272Z,545
2018-02-19T13:47:23.108Z,585
2018-02-19T13:48:31.943Z,560
2018-02-19T13:49:40.780Z,545
2018-02-19T13:50:49.669Z,525
2018-02-19T13:51:58.508Z,510
2018-02-19T13:53:07.622Z,505
2018-02-19T13:54:16.788Z,515
2018-02-19T13:55:25.623Z,525
2018-02-19T13:56:34.560Z,530
2018-02-19T13:57:43.397Z,545
2018-02-19T13:58:52.235Z,550
2018-02-19T14:00:01.070Z,510
2018-02-19T14:01:09.905Z,510
2018-02-19T14:02:18.740Z,545
2018-02-19T14:03:59.638Z,530
2018-02-19T14:05:08.475Z,540
2018-02-19T14:06:17.588Z,550
2018-02-19T14:07:26.726Z,550
2018-02-19T14:08:35.563Z,555
2018-02-19T14:09:44.396Z,530
2018-02-19T14:10:53.235Z,580
2018-02-19T14:12:02.066Z,665
2018-02-19T14:13:10.951Z,600
2018-02-19T14:14:19.787Z,555
2018-02-19T14:15:28.903Z,530
2018-02-19T14:16:37.737Z,530
2018-02-19T14:17:46.847Z,545
2018-02-19T14:18:55.782Z,540
2018-02-19T14:20:04.893Z,520
2018-02-19T14:21:14.288Z,495
2018-02-19T14:22:23.125Z,485
2018-02-19T14:23:31.963Z,455
2018-02-19T14:24:40.947Z,450
2018-02-19T14:25:49.783Z,450
2018-02-19T14:26:58.618Z,425
2018-02-19T14:28:07.453Z,385
2018-02-19T14:29:16.290Z,375
2018-02-19T14:30:25.228Z,375
2018-02-19T14:31:34.068Z,390
2018-02-19T14:32:42.901Z,400
2018-02-19T14:33:52.017Z,405
2018-02-19T14:35:00.855Z,425
2018-02-19T14:36:10.018Z,425
2018-02-19T14:37:18.855Z,450
2018-02-19T14:38:27.699Z,445
2018-02-19T14:39:36.819Z,425
2018-02-19T14:40:45.650Z,440
2018-02-19T14:41:54.797Z,455
2018-02-19T14:43:03.641Z,465
2018-02-19T14:44:12.477Z,470
2018-02-19T14:45:21.320Z,440
2018-02-19T14:46:30.710Z,430
2018-02-19T14:47:39.794Z,470
2018-02-19T14:48:48.628Z,515
2018-02-19T14:49:57.462Z,515
2018-02-19T14:51:06.295Z,500
2018-02-19T14:52:15.131Z,505
2018-02-19T14:53:24.348Z,460
2018-02-19T14:54:33.460Z,465
2018-02-19T14:55:42.296Z,475
2018-02-19T14:56:51.135Z,490
2018-02-19T14:58:00.245Z,485
2018-02-19T14:59:09.083Z,465
2018-02-19T15:00:17.915Z,440
2018-02-19T15:01:26.752Z,425
2018-02-19T15:02:35.589Z,455
2018-02-19T15:03:44.424Z,435
2018-02-19T15:04:53.360Z,405
2018-02-19T15:06:02.198Z,385
2018-02-19T15:07:11.032Z,380
2018-02-19T15:08:20.148Z,370
2018-02-19T15:09:28.985Z,365
2018-02-19T15:10:37.820Z,375
2018-02-19T15:11:47.125Z,405
2018-02-19T15:12:56.107Z,410
2018-02-19T15:14:05.326Z,420
2018-02-19T15:15:15.466Z,370
2018-02-19T15:16:24.704Z,370
2018-02-19T15:17:34.145Z,420
2018-02-19T15:18:43.105Z,425
2018-02-19T15:19:53.241Z,340
2018-02-19T15:21:02.467Z,375
2018-02-19T15:22:11.720Z,420
2018-02-19T15:23:20.841Z,390
2018-02-19T15:24:29.760Z,405
2018-02-19T15:25:38.653Z,405
2018-02-19T15:26:47.575Z,380
2018-02-19T15:27:56.753Z,325
2018-02-19T15:29:05.660Z,280
2018-02-19T15:30:14.503Z,265
2018-02-19T15:31:23.339Z,260
2018-02-19T15:32:32.176Z,275
2018-02-19T15:33:41.288Z,275
2018-02-19T15:34:50.124Z,260
2018-02-19T15:35:58.966Z,235
2018-02-19T15:37:07.809Z,240
2018-02-19T15:38:16.645Z,265
2018-02-19T15:39:25.480Z,300
2018-02-19T15:40:34.319Z,280
2018-02-19T15:41:43.479Z,270
2018-02-19T15:42:52.588Z,285
2018-02-19T15:44:01.796Z,295
2018-02-19T15:45:10.636Z,300
2018-02-19T15:46:19.541Z,270
2018-02-19T15:47:28.398Z,220
2018-02-19T15:48:37.258Z,190
2018-02-19T15:49:46.359Z,180
2018-02-19T15:50:55.315Z,175
2018-02-19T15:52:04.223Z,160
2018-02-19T15:53:13.080Z,150
2018-02-19T15:54:21.976Z,140
2018-02-19T15:55:30.810Z,135
2018-02-19T15:56:40.261Z,130
2018-02-19T15:57:49.102Z,125
2018-02-19T15:58:57.934Z,120
2018-02-19T16:00:06.771Z,115
2018-02-19T16:01:15.914Z,110
2018-02-19T16:02:24.749Z,105
2018-02-19T16:03:33.610Z,100
2018-02-19T16:04:42.720Z,100
2018-02-19T16:05:51.623Z,95
2018-02-19T16:07:00.736Z,90
2018-02-19T16:08:09.571Z,85
2018-02-19T16:09:18.404Z,80
2018-02-19T16:10:27.237Z,75
2018-02-19T16:11:36.070Z,70
2018-02-19T16:12:44.954Z,65
2018-02-19T16:13:53.787Z,60
2018-02-19T16:15:02.622Z,55
2018-02-19T16:16:11.455Z,55
2018-02-19T16:17:20.289Z,50
2018-02-19T16:18:29.377Z,50
2018-02-19T16:19:38.210Z,45
2018-02-19T16:20:47.047Z,45